Latest Weather Observations for Narrabri

IDN60801

Issued at 9:32 am EST Saturday 19 August 2017 (issued every 30 minutes, with the page automatically refreshed every 10 minutes)

About weather observations | Map of weather stations | Latest weather observations for NSW | Other Formats
Station Details ID: 054038 Name: NARRABRI AIRPORT AWS Lat: -30.32 Lon: 149.83 Height: 229.02 m
Data from the previous 72 hours. | See also: Recent months at Narrabri
Date/Time
EST
Temp
°C
App
Temp
°C
Dew
Point
°C
Rel
Hum
%
Delta-T
°C
Wind Press
QNH
hPa
Press
MSL
hPa
Rain since
9am
mm
Dir  Spd
km/h
Gust
km/h
Spd
kts
Gust
kts
19/09:30am 9.2 5.1 0.1 53 3.7 S 11 17 6 9 1022.1 1022.1 0.0
19/09:00am 8.1 4.5 0.6 59 3.0 SSW 9 17 5 9 1021.8 1021.8 0.0
19/08:30am 7.5 4.8 0.5 61 2.8 SSE 4 7 2 4 1021.8 1021.8 0.0
19/08:00am 6.4 3.8 1.1 69 2.1 NNE 4 7 2 4 1021.2 1021.2 0.0
19/07:30am 3.9 0.7 0.6 79 1.3 NE 7 11 4 6 1020.7 1020.8 0.0
19/07:00am 1.8 -0.5 -2.0 76 1.3 CALM 0 6 0 3 1020.4 1020.5 0.0
19/06:30am 2.1 -1.9 -1.9 75 1.4 ENE 9 13 5 7 1020.2 1020.3 0.0
19/06:00am 0.7 -3.7 -2.2 81 1.0 ENE 11 17 6 9 1020.0 1020.1 0.0
19/05:30am 0.8 -2.8 -2.4 79 1.2 NE 7 9 4 5 1019.9 1020.0 0.0
19/05:00am -0.9 -3.3 -3.3 84 0.8 CALM 0 0 0 0 1019.8 1019.9 0.0
19/04:30am 0.4 -2.1 -4.0 72 1.5 CALM 0 0 0 0 1019.6 1019.7 0.0
19/04:00am 1.9 -1.6 -3.2 69 1.7 ENE 6 7 3 4 1019.3 1019.3 0.0
19/03:30am 2.7 -1.4 -2.8 67 1.9 ENE 9 11 5 6 1019.2 1019.2 0.0
19/03:00am 2.7 -0.8 -2.8 67 1.9 NE 6 9 3 5 1019.3 1019.3 0.0
19/02:30am 3.3 0.5 -3.1 63 2.2 NNE 2 9 1 5 1019.3 1019.3 0.0
19/02:00am 3.4 1.1 -2.7 64 2.1 CALM 0 0 0 0 1019.5 1019.6 0.0
19/01:30am 4.3 1.2 -2.5 61 2.4 NE 4 7 2 4 1019.7 1019.8 0.0
19/01:00am 2.3 -1.4 -3.2 67 1.9 NNE 7 9 4 5 1019.8 1019.9 0.0
19/12:30am 3.7 1.2 -3.6 59 2.5 CALM 0 0 0 0 1019.9 1020.0 0.0
19/12:00am 5.2 2.8 -3.1 55 3.0 CALM 0 0 0 0 1019.9 1020.0 0.0
 
Date/Time
EST
Temp
°C
App
Temp
°C
Dew
Point
°C
Rel
Hum
%
Delta-T
°C
Wind Press
QNH
hPa
Press
MSL
hPa
Rain since
9am
mm
Dir  Spd
km/h
Gust
km/h
Spd
kts
Gust
kts
18/11:30pm 5.5 3.1 -3.1 54 3.1 CALM 0 0 0 0 1020.0 1020.1 0.0
18/11:00pm 6.0 2.5 -3.1 52 3.3 SSW 6 7 3 4 1020.0 1020.1 0.0
18/10:30pm 6.9 2.8 -3.3 48 3.7 SSW 9 11 5 6 1020.0 1020.1 0.0
18/10:00pm 7.5 3.0 -3.1 47 3.9 S 11 13 6 7 1019.9 1020.0 0.0
18/09:30pm 8.4 4.3 -3.4 43 4.4 S 9 13 5 7 1019.8 1019.9 0.0
18/09:00pm 8.8 4.3 -3.4 42 4.5 SSW 11 11 6 6 1019.6 1019.7 0.0
18/08:30pm 9.6 5.8 -3.7 39 4.9 SSW 7 9 4 5 1019.4 1019.5 0.0
18/08:00pm 10.4 5.9 -3.6 37 5.2 SSW 11 13 6 7 1019.1 1019.1 0.0
18/07:30pm 10.2 5.7 -3.5 38 5.2 SSW 11 15 6 8 1018.8 1018.8 0.0
18/07:00pm 12.1 6.7 -4.1 32 6.1 SW 15 19 8 10 1018.3 1018.3 0.0
18/06:30pm 12.9 6.8 -3.8 31 6.4 SW 19 26 10 14 1017.8 1017.8 0.0
18/06:00pm 14.0 6.9 -4.2 28 7.0 WSW 24 35 13 19 1017.3 1017.3 0.0
18/05:30pm 14.6 7.1 -4.2 27 7.3 WSW 26 37 14 20 1017.0 1017.0 0.0
18/05:00pm 15.8 7.6 -4.2 25 7.9 SW 30 39 16 21 1016.6 1016.6 0.0
18/04:30pm 16.5 7.8 -4.7 23 8.3 WSW 32 46 17 25 1016.1 1016.2 0.0
18/04:00pm 17.0 8.3 -3.7 24 8.3 WSW 33 46 18 25 1015.8 1015.9 0.0
18/03:36pm 17.0 7.8 -4.3 23 8.5 WSW 35 57 19 31 1015.6 1015.6 0.0
18/03:30pm 17.2 8.7 -3.5 24 8.4 WSW 32 41 17 22 1015.7 1015.8 0.0
18/03:00pm 17.5 8.9 -3.8 23 8.6 WSW 32 43 17 23 1015.6 1015.6 0.0
18/02:43pm 17.6 8.9 -3.7 23 8.6 WSW 33 54 18 29 1015.6 1015.6 0.0
18/02:30pm 17.9 9.3 -2.9 24 8.6 WSW 33 48 18 26 1015.6 1015.6 0.0
18/02:00pm 17.6 8.2 -3.2 24 8.5 WSW 37 48 20 26 1015.6 1015.6 0.0
18/01:30pm 17.6 9.4 -3.7 23 8.6 WSW 30 43 16 23 1015.8 1015.9 0.0
18/01:13pm 17.8 9.3 -3.6 23 8.7 WSW 32 52 17 28 1015.8 1015.9 0.0
18/01:00pm 17.5 8.5 -2.7 25 8.3 WSW 35 48 19 26 1016.0 1016.1 0.0
18/12:30pm 17.2 8.2 -2.4 26 8.1 WSW 35 48 19 26 1016.5 1016.5 0.0
18/12:00pm 17.1 9.1 -2.0 27 8.0 WSW 30 41 16 22 1017.0 1017.0 0.0
18/11:35am 16.5 8.6 -1.6 29 7.6 WSW 30 46 16 25 1017.3 1017.3 0.0
18/11:30am 16.8 8.9 -1.3 29 7.7 WSW 30 43 16 23 1017.4 1017.4 0.0
18/11:00am 16.0 8.0 -2.0 29 7.4 WSW 30 43 16 23 1017.8 1017.8 0.0
18/10:30am 15.6 7.2 -1.0 32 7.0 SW 33 44 18 24 1018.2 1018.2 0.0
18/10:00am 15.1 8.3 0.5 37 6.3 SW 26 37 14 20 1018.3 1018.3 0.0
18/09:30am 14.3 9.0 1.6 42 5.6 SW 19 26 10 14 1018.2 1018.2 0.0
18/09:00am 13.1 8.6 -0.2 40 5.5 WSW 13 19 7 10 1018.4 1018.4 0.0
18/08:30am 11.6 7.0 -1.2 41 5.2 W 13 17 7 9 1018.1 1018.1 0.0
18/08:00am 10.5 6.6 -1.2 44 4.6 NW 9 13 5 7 1017.6 1017.6 0.0
18/07:30am 8.8 4.9 -1.3 49 3.9 NE 9 11 5 6 1017.1 1017.1 0.0
18/07:00am 6.9 2.6 -2.0 53 3.3 NNE 11 13 6 7 1016.6 1016.6 0.0
18/06:30am 6.2 1.8 -2.7 53 3.3 NNE 11 13 6 7 1016.1 1016.2 0.0
18/06:00am 6.7 2.3 -2.7 51 3.5 NNE 11 13 6 7 1015.6 1015.6 0.0
18/05:30am 7.8 3.7 -2.8 47 3.9 NNE 9 11 5 6 1015.3 1015.3 0.0
18/05:00am 7.4 3.3 -2.9 48 3.8 NE 9 9 5 5 1014.7 1014.7 0.0
18/04:30am 7.9 3.8 -2.7 47 4.0 NNE 9 11 5 6 1014.3 1014.3 0.0
18/04:00am 8.6 4.6 -2.3 46 4.1 N 9 13 5 7 1014.2 1014.2 0.0
18/03:30am 9.1 5.4 -3.1 42 4.6 N 7 11 4 6 1014.4 1014.4 0.0
18/03:00am 10.1 6.0 -2.9 40 5.0 N 9 13 5 7 1014.3 1014.3 0.0
18/02:30am 10.5 6.4 -2.8 39 5.1 N 9 15 5 8 1014.4 1014.4 0.0
18/02:00am 10.5 6.5 -2.5 40 5.0 NNE 9 13 5 7 1014.3 1014.3 0.0
18/01:30am 9.8 5.4 -2.2 43 4.6 NNE 11 13 6 7 1014.3 1014.3 0.0
18/01:00am 10.5 6.9 -2.2 41 4.9 N 7 13 4 7 1014.4 1014.4 0.0
18/12:30am 10.8 6.8 -1.9 41 5.0 NNE 9 15 5 8 1014.6 1014.6 0.0
18/12:00am 11.3 7.4 -1.8 40 5.2 NNE 9 11 5 6 1014.6 1014.6 0.0
 
Date/Time
EST
Temp
°C
App
Temp
°C
Dew
Point
°C
Rel
Hum
%
Delta-T
°C
Wind Press
QNH
hPa
Press
MSL
hPa
Rain since
9am
mm
Dir  Spd
km/h
Gust
km/h
Spd
kts
Gust
kts
17/11:30pm 10.9 6.6 -1.5 42 4.9 NE 11 13 6 7 1014.7 1014.7 0.0
17/11:00pm 10.5 6.2 -1.5 43 4.7 NE 11 13 6 7 1014.7 1014.7 0.0
17/10:30pm 10.1 5.9 -1.0 46 4.4 NNE 11 15 6 8 1014.6 1014.6 0.0
17/10:00pm 11.1 6.9 -1.0 43 4.9 NE 11 13 6 7 1014.7 1014.7 0.0
17/09:30pm 11.5 7.6 -1.3 41 5.1 NNE 9 11 5 6 1014.7 1014.7 0.0
17/09:00pm 12.1 7.9 -1.1 40 5.4 NNE 11 13 6 7 1014.5 1014.5 0.0
17/08:30pm 11.6 7.1 -0.5 43 5.0 NE 13 15 7 8 1014.2 1014.2 0.0
17/08:00pm 12.5 8.0 -0.4 41 5.3 NE 13 15 7 8 1014.0 1014.0 0.0
17/07:30pm 12.7 8.2 -0.5 40 5.5 NE 13 15 7 8 1013.9 1013.9 0.0
17/07:00pm 13.0 9.2 -0.6 39 5.6 NE 9 11 5 6 1013.4 1013.4 0.0
17/06:30pm 13.0 9.2 -0.6 39 5.6 N 9 11 5 6 1013.0 1013.0 0.0
17/06:00pm 15.4 10.7 -1.6 31 7.1 NW 13 13 7 7 1012.8 1012.8 0.0
17/05:30pm 18.2 12.7 -2.1 25 8.6 WNW 17 22 9 12 1012.5 1012.5 0.0
17/05:00pm 19.7 13.3 -2.0 23 9.3 WNW 22 28 12 15 1012.2 1012.2 0.0
17/04:30pm 20.7 13.5 -2.4 21 9.9 WNW 26 35 14 19 1012.0 1012.0 0.0
17/04:00pm 21.2 14.1 -1.3 22 9.9 WNW 26 37 14 20 1011.8 1011.7 0.0
17/03:30pm 21.8 16.0 -0.2 23 9.9 W 20 30 11 16 1011.7 1011.6 0.0
17/03:00pm 21.6 15.7 -1.0 22 10.0 WNW 20 32 11 17 1011.8 1011.7 0.0
17/02:30pm 21.5 14.8 -1.1 22 10.0 W 24 32 13 17 1011.9 1011.8 0.0
17/02:00pm 21.5 15.1 -1.7 21 10.2 W 22 32 12 17 1012.0 1012.0 0.0
17/01:30pm 21.5 16.3 0.1 24 9.7 W 17 28 9 15 1012.2 1012.2 0.0
17/01:00pm 21.0 15.2 0.2 25 9.4 W 20 33 11 18 1012.7 1012.7 0.0
17/12:30pm 20.8 15.0 0.1 25 9.3 WSW 20 30 11 16 1012.9 1012.9 0.0
17/12:00pm 20.8 15.8 1.1 27 9.1 WNW 17 26 9 14 1013.2 1013.2 0.0
17/11:30am 20.8 16.8 2.6 30 8.6 WSW 13 28 7 15 1013.7 1013.7 0.0
17/11:00am 19.8 14.8 1.3 29 8.5 W 17 33 9 18 1014.0 1014.0 0.0
17/10:30am 19.3 15.6 2.6 33 7.8 W 11 17 6 9 1014.3 1014.3 0.0
17/10:00am 18.2 14.6 2.9 36 7.1 WNW 11 17 6 9 1014.4 1014.4 0.0
17/09:30am 17.2 14.2 4.2 42 6.2 WNW 9 17 5 9 1014.4 1014.4 0.0
17/09:00am 15.2 12.8 5.1 51 4.8 NNW 7 9 4 5 1014.2 1014.2 0.0
17/08:30am 13.2 11.6 6.3 63 3.3 NNW 4 9 2 5 1014.1 1014.1 0.0
17/08:00am 11.9 9.9 6.4 69 2.6 ENE 6 7 3 4 1013.9 1013.9 0.0
17/07:30am 8.4 7.3 5.0 79 1.5 CALM 0 0 0 0 1013.5 1013.5 0.0
17/07:00am 6.5 2.8 4.3 86 1.0 ENE 13 15 7 8 1013.2 1013.2 0.0
17/06:30am 6.2 3.4 3.2 81 1.3 NE 7 11 4 6 1012.7 1012.7 0.0
17/06:00am 8.2 6.5 4.0 75 1.8 S 2 6 1 3 1012.3 1012.3 0.0
17/05:30am 8.0 5.6 4.2 77 1.7 SSW 6 9 3 5 1012.0 1012.0 0.0
17/05:00am 8.0 6.6 3.7 74 1.9 CALM 0 0 0 0 1011.5 1011.5 0.0
17/04:30am 8.6 6.6 4.2 74 2.0 ENE 4 9 2 5 1011.1 1011.1 0.0
17/04:00am 9.3 7.7 4.3 71 2.2 E 2 9 1 5 1011.1 1011.1 0.0
17/03:30am 10.3 8.2 4.0 65 2.8 SW 4 9 2 5 1011.0 1011.0 0.0
17/03:00am 12.5 10.4 4.0 56 3.9 SSE 4 9 2 5 1010.8 1010.8 0.0
17/02:30am 14.9 11.7 5.1 52 4.7 SE 11 19 6 10 1010.8 1010.8 0.0
17/02:00am 15.0 12.2 5.0 51 4.8 SSE 9 15 5 8 1011.0 1011.0 0.0
17/01:30am 14.7 11.8 4.4 50 4.8 SSE 9 13 5 7 1011.2 1011.2 0.0
17/01:00am 14.9 11.6 4.3 49 5.0 SSE 11 17 6 9 1011.3 1011.3 0.0
17/12:30am 16.0 11.8 3.8 44 5.7 SE 15 26 8 14 1011.4 1011.4 0.0
17/12:00am 15.9 11.8 4.6 47 5.4 SE 15 24 8 13 1011.5 1011.5 0.0
 
Date/Time
EST
Temp
°C
App
Temp
°C
Dew
Point
°C
Rel
Hum
%
Delta-T
°C
Wind Press
QNH
hPa
Press
MSL
hPa
Rain since
9am
mm
Dir  Spd
km/h
Gust
km/h
Spd
kts
Gust
kts
16/11:30pm 16.3 11.4 4.0 44 5.8 SE 19 26 10 14 1011.5 1011.5 0.0
16/11:00pm 16.4 12.0 6.5 52 4.9 SSE 19 28 10 15 1011.4 1011.4 0.0
16/10:30pm 15.6 13.0 7.6 59 4.0 S 11 15 6 8 1011.3 1011.3 0.0
16/10:00pm 14.2 12.3 6.8 61 3.6 SSW 6 17 3 9 1011.3 1011.3 0.0
16/09:30pm 15.9 15.2 7.1 56 4.4 CALM 0 0 0 0 1011.0 1011.0 0.0
16/09:00pm 16.8 15.0 7.2 53 4.8 WSW 6 11 3 6 1010.9 1010.9 0.0
16/08:30pm 17.2 14.5 7.5 53 4.9 NE 11 11 6 6 1010.6 1010.6 0.0
16/08:00pm 17.5 14.8 7.5 52 5.1 NE 11 13 6 7 1010.3 1010.3 0.0
16/07:30pm 18.0 15.4 7.7 51 5.3 NE 11 13 6 7 1010.1 1010.1 0.0
16/07:00pm 17.6 14.6 7.6 52 5.1 NNE 13 15 7 8 1009.9 1009.9 0.0
16/06:30pm 18.6 15.6 7.7 49 5.6 N 13 13 7 7 1009.8 1009.8 0.0
16/06:00pm 19.3 16.9 7.1 45 6.3 N 9 11 5 6 1009.7 1009.7 0.0
16/05:30pm 21.7 18.4 6.4 37 7.8 NNW 13 17 7 9 1009.3 1009.3 0.0
16/05:00pm 22.9 18.8 6.2 34 8.6 NW 17 20 9 11 1009.1 1009.1 0.0
16/04:30pm 24.0 19.2 5.8 31 9.4 NW 20 26 11 14 1008.9 1008.9 0.0
16/04:00pm 24.7 20.3 6.4 31 9.6 W 19 24 10 13 1008.6 1008.6 0.0
16/03:30pm 24.8 20.2 5.6 29 9.9 WNW 19 22 10 12 1008.4 1008.4 0.0
16/03:00pm 24.8 20.2 5.6 29 9.9 W 19 24 10 13 1008.3 1008.3 0.0
16/02:30pm 24.8 20.6 5.6 29 9.9 WNW 17 24 9 13 1008.4 1008.4 0.0
16/02:00pm 25.2 20.4 5.4 28 10.2 W 20 26 11 14 1008.3 1008.3 0.0
16/01:30pm 25.1 19.7 4.3 26 10.5 WNW 22 30 12 16 1008.5 1008.5 0.0
16/01:00pm 24.9 18.0 2.4 23 11.0 W 28 35 15 19 1008.4 1008.4 0.0
16/12:30pm 25.0 18.9 0.5 20 11.5 WNW 22 32 12 17 1008.7 1008.7 0.0
16/12:00pm 25.2 18.4 0.7 20 11.6 WNW 26 35 14 19 1008.9 1008.9 0.0
16/11:30am 25.3 18.5 0.8 20 11.6 WNW 26 37 14 20 1009.1 1009.1 0.0
16/11:00am 24.7 17.2 0.9 21 11.3 WNW 30 43 16 23 1009.4 1009.4 0.0
16/10:30am 23.9 17.6 1.5 23 10.6 WNW 24 33 13 18 1009.6 1009.6 0.0
16/10:00am 23.6 16.7 2.4 25 10.2 NW 28 43 15 23 1009.7 1009.7 0.0

Other Formats:

Comma delimited format used in spreadsheet applications
http://www.bom.gov.au/fwo/IDN60801/IDN60801.95734.axf

JavaScript Object Notation format (JSON) in row-major order
http://www.bom.gov.au/fwo/IDN60801/IDN60801.95734.json